This is the latest recevied weather packets stored in our database for station/object N3WAX-1. If no packets are shown the sender has not sent any weather packets the latest 10 day(s).
| Time | Temp. | Humidity | Pressure | Rain* | Wind** | Luminosity | Snow |
|---|---|---|---|---|---|---|---|
| 1778051087 | 18.89° C | 75% | 1009.9 hPa | 0 mm | - | 0 W/m² | - |
| 1778049257 | 18.89° C | 74% | 1010.2 hPa | 0 mm | - | 0 W/m² | - |
| 1778046859 | 19.44° C | 71% | 1010.4 hPa | 0 mm | - | 0 W/m² | - |
| 1778044453 | 19.44° C | 68% | 1010.8 hPa | 0 mm | - | 0 W/m² | - |
| 1778043550 | 19.44° C | 68% | 1010.8 hPa | 0 mm | - | 0 W/m² | - |
| 1778042347 | 19.44° C | 67% | 1010.8 hPa | 0 mm | - | 0 W/m² | - |
| 1778040246 | 19.44° C | 66% | 1010.9 hPa | 0 mm | - | 0 W/m² | - |
| 1778038744 | 19.44° C | 65% | 1010.8 hPa | 0 mm | - | 0 W/m² | - |
| 1778036782 | 20° C | 65% | 1010.8 hPa | 0 mm | - | 0 W/m² | - |
| 1778035445 | 20° C | 64% | 1011.1 hPa | 0 mm | - | 0 W/m² | - |
| 1778033338 | 20.56° C | 62% | 1011.1 hPa | 0 mm | - | 0 W/m² | - |
| 1778033176 | 20.56° C | 62% | 1011 hPa | 0 mm | - | 0 W/m² | - |
| 1778032737 | 20.56° C | 61% | 1011 hPa | 0 mm | - | 0 W/m² | - |
| 1778031520 | 20.56° C | 60% | 1010.8 hPa | 0 mm | - | 0 W/m² | - |
| 1778031213 | 20.56° C | 60% | 1010.8 hPa | 0 mm | - | 0 W/m² | - |
| 1778030597 | 21.11° C | 59% | 1010.7 hPa | 0 mm | - | 0 W/m² | - |
| 1778029819 | 21.67° C | 58% | 1010.4 hPa | 0 mm | - | 0 W/m² | - |
| 1778027524 | 22.22° C | 54% | 1010.1 hPa | 0 mm | - | 0 W/m² | - |
| 1778026602 | 22.22° C | 53% | 1010 hPa | 0 mm | - | 0 W/m² | - |
| 1778023527 | 23.33° C | 50% | 1009.6 hPa | 0 mm | - | 37 W/m² | - |
| 1778022605 | 23.89° C | 48% | 1009.7 hPa | 0 mm | - | 44 W/m² | - |
| 1778021377 | 24.44° C | 47% | 1009.6 hPa | 0 mm | - | 67 W/m² | - |
| 1778016807 | 25.56° C | 47% | 1009.4 hPa | 0 mm | - | 367 W/m² | - |
| 1778016208 | 25.56° C | 46% | 1009.3 hPa | 0 mm | - | 432 W/m² | - |
| 1778014098 | 25.56° C | 45% | 1009.6 hPa | 0 mm | - | 403 W/m² | - |
* Rain latest hour (hover to see other rain measurements)
** Current wind speed in m/s (hover to see current wind gust speed)